sensor_id;sensor_type;location;lat;lon;timestamp;P1;durP1;ratioP1;P2;durP2;ratioP2
31676;SDS011;18385;51.572;6.578;2024-03-08T00:00:40;19.38;;;9.40;;
31676;SDS011;18385;51.572;6.578;2024-03-08T00:03:08;20.20;;;9.38;;
31676;SDS011;18385;51.572;6.578;2024-03-08T00:05:35;22.92;;;9.68;;
31676;SDS011;18385;51.572;6.578;2024-03-08T00:08:03;20.42;;;9.95;;
31676;SDS011;18385;51.572;6.578;2024-03-08T00:10:30;19.70;;;9.65;;
31676;SDS011;18385;51.572;6.578;2024-03-08T00:12:55;21.20;;;9.30;;
31676;SDS011;18385;51.572;6.578;2024-03-08T00:15:22;21.08;;;9.82;;
31676;SDS011;18385;51.572;6.578;2024-03-08T00:17:48;17.55;;;8.70;;
31676;SDS011;18385;51.572;6.578;2024-03-08T00:20:14;20.27;;;9.20;;
31676;SDS011;18385;51.572;6.578;2024-03-08T00:22:42;17.85;;;9.25;;
31676;SDS011;18385;51.572;6.578;2024-03-08T00:25:08;21.27;;;10.63;;
31676;SDS011;18385;51.572;6.578;2024-03-08T00:27:34;25.13;;;11.35;;
31676;SDS011;18385;51.572;6.578;2024-03-08T00:30:00;22.70;;;11.38;;
31676;SDS011;18385;51.572;6.578;2024-03-08T00:32:27;20.95;;;10.32;;
31676;SDS011;18385;51.572;6.578;2024-03-08T00:34:55;19.23;;;10.20;;
31676;SDS011;18385;51.572;6.578;2024-03-08T00:37:21;24.40;;;11.50;;
31676;SDS011;18385;51.572;6.578;2024-03-08T00:39:47;19.65;;;10.50;;
31676;SDS011;18385;51.572;6.578;2024-03-08T00:42:14;21.38;;;10.90;;
31676;SDS011;18385;51.572;6.578;2024-03-08T00:44:43;20.85;;;12.02;;
31676;SDS011;18385;51.572;6.578;2024-03-08T00:47:09;20.05;;;10.68;;
31676;SDS011;18385;51.572;6.578;2024-03-08T00:49:35;22.65;;;10.98;;
31676;SDS011;18385;51.572;6.578;2024-03-08T00:52:04;22.25;;;10.45;;
31676;SDS011;18385;51.572;6.578;2024-03-08T00:54:33;21.17;;;10.40;;
31676;SDS011;18385;51.572;6.578;2024-03-08T00:57:01;22.42;;;12.25;;
31676;SDS011;18385;51.572;6.578;2024-03-08T00:59:28;21.17;;;10.98;;
31676;SDS011;18385;51.572;6.578;2024-03-08T01:01:54;21.10;;;10.35;;
31676;SDS011;18385;51.572;6.578;2024-03-08T01:04:20;21.60;;;11.50;;
31676;SDS011;18385;51.572;6.578;2024-03-08T01:06:46;22.33;;;11.10;;
31676;SDS011;18385;51.572;6.578;2024-03-08T01:09:12;22.75;;;11.23;;
31676;SDS011;18385;51.572;6.578;2024-03-08T01:11:38;24.55;;;11.50;;
31676;SDS011;18385;51.572;6.578;2024-03-08T01:14:04;19.80;;;10.25;;
31676;SDS011;18385;51.572;6.578;2024-03-08T01:16:30;25.30;;;10.88;;
31676;SDS011;18385;51.572;6.578;2024-03-08T01:18:58;22.92;;;11.25;;
31676;SDS011;18385;51.572;6.578;2024-03-08T01:21:23;22.77;;;11.35;;
31676;SDS011;18385;51.572;6.578;2024-03-08T01:23:49;20.73;;;11.27;;
31676;SDS011;18385;51.572;6.578;2024-03-08T01:26:15;19.23;;;10.30;;
31676;SDS011;18385;51.572;6.578;2024-03-08T01:28:41;23.15;;;11.48;;
31676;SDS011;18385;51.572;6.578;2024-03-08T01:31:07;23.35;;;11.95;;
31676;SDS011;18385;51.572;6.578;2024-03-08T01:33:32;25.30;;;11.70;;
31676;SDS011;18385;51.572;6.578;2024-03-08T01:35:58;26.08;;;12.25;;
31676;SDS011;18385;51.572;6.578;2024-03-08T01:38:24;20.88;;;10.68;;
31676;SDS011;18385;51.572;6.578;2024-03-08T01:40:50;20.48;;;11.20;;
31676;SDS011;18385;51.572;6.578;2024-03-08T01:43:25;24.10;;;11.93;;
31676;SDS011;18385;51.572;6.578;2024-03-08T01:45:54;22.60;;;11.75;;
31676;SDS011;18385;51.572;6.578;2024-03-08T01:48:22;22.23;;;11.80;;
31676;SDS011;18385;51.572;6.578;2024-03-08T01:50:49;23.20;;;12.40;;
31676;SDS011;18385;51.572;6.578;2024-03-08T01:53:15;21.88;;;11.43;;
31676;SDS011;18385;51.572;6.578;2024-03-08T01:55:47;20.08;;;11.10;;
31676;SDS011;18385;51.572;6.578;2024-03-08T01:58:14;26.20;;;13.05;;
31676;SDS011;18385;51.572;6.578;2024-03-08T02:00:41;20.92;;;11.80;;
31676;SDS011;18385;51.572;6.578;2024-03-08T02:03:14;23.92;;;12.55;;
31676;SDS011;18385;51.572;6.578;2024-03-08T02:05:40;24.67;;;11.63;;
31676;SDS011;18385;51.572;6.578;2024-03-08T02:08:06;26.02;;;12.00;;
31676;SDS011;18385;51.572;6.578;2024-03-08T02:10:38;27.02;;;12.18;;
31676;SDS011;18385;51.572;6.578;2024-03-08T02:13:05;24.25;;;11.75;;
31676;SDS011;18385;51.572;6.578;2024-03-08T02:18:15;23.52;;;11.98;;
31676;SDS011;18385;51.572;6.578;2024-03-08T02:20:42;20.65;;;11.05;;
31676;SDS011;18385;51.572;6.578;2024-03-08T02:23:08;23.83;;;12.02;;
31676;SDS011;18385;51.572;6.578;2024-03-08T02:25:34;24.83;;;11.73;;
31676;SDS011;18385;51.572;6.578;2024-03-08T02:28:00;23.23;;;12.15;;
31676;SDS011;18385;51.572;6.578;2024-03-08T02:30:26;24.45;;;12.93;;
31676;SDS011;18385;51.572;6.578;2024-03-08T02:32:55;24.33;;;11.30;;
31676;SDS011;18385;51.572;6.578;2024-03-08T02:35:21;23.90;;;12.38;;
31676;SDS011;18385;51.572;6.578;2024-03-08T02:37:47;25.50;;;12.23;;
31676;SDS011;18385;51.572;6.578;2024-03-08T02:40:13;24.58;;;12.70;;
31676;SDS011;18385;51.572;6.578;2024-03-08T02:42:39;22.13;;;12.35;;
31676;SDS011;18385;51.572;6.578;2024-03-08T02:45:05;23.13;;;12.25;;
31676;SDS011;18385;51.572;6.578;2024-03-08T02:47:31;29.00;;;12.30;;
31676;SDS011;18385;51.572;6.578;2024-03-08T02:49:57;23.75;;;11.80;;
31676;SDS011;18385;51.572;6.578;2024-03-08T02:52:23;25.30;;;12.45;;
31676;SDS011;18385;51.572;6.578;2024-03-08T02:54:48;24.67;;;13.10;;
31676;SDS011;18385;51.572;6.578;2024-03-08T02:57:15;22.42;;;11.40;;
31676;SDS011;18385;51.572;6.578;2024-03-08T02:59:41;28.38;;;12.65;;
31676;SDS011;18385;51.572;6.578;2024-03-08T03:02:06;27.13;;;13.18;;
31676;SDS011;18385;51.572;6.578;2024-03-08T03:04:32;29.33;;;13.60;;
31676;SDS011;18385;51.572;6.578;2024-03-08T03:06:59;24.77;;;12.75;;
31676;SDS011;18385;51.572;6.578;2024-03-08T03:09:26;28.42;;;13.85;;
31676;SDS011;18385;51.572;6.578;2024-03-08T03:11:53;23.45;;;12.07;;
31676;SDS011;18385;51.572;6.578;2024-03-08T03:14:23;22.38;;;11.85;;
31676;SDS011;18385;51.572;6.578;2024-03-08T03:16:49;23.70;;;12.90;;
31676;SDS011;18385;51.572;6.578;2024-03-08T03:19:15;26.15;;;12.65;;
31676;SDS011;18385;51.572;6.578;2024-03-08T03:21:40;25.65;;;11.90;;
31676;SDS011;18385;51.572;6.578;2024-03-08T03:24:08;25.20;;;11.88;;
31676;SDS011;18385;51.572;6.578;2024-03-08T03:26:40;22.08;;;12.13;;
31676;SDS011;18385;51.572;6.578;2024-03-08T03:29:06;27.73;;;13.40;;
31676;SDS011;18385;51.572;6.578;2024-03-08T03:31:33;25.35;;;12.02;;
31676;SDS011;18385;51.572;6.578;2024-03-08T03:34:00;26.27;;;12.27;;
31676;SDS011;18385;51.572;6.578;2024-03-08T03:36:29;24.45;;;12.20;;
31676;SDS011;18385;51.572;6.578;2024-03-08T03:38:55;26.67;;;13.63;;
31676;SDS011;18385;51.572;6.578;2024-03-08T03:41:36;26.45;;;12.68;;
31676;SDS011;18385;51.572;6.578;2024-03-08T03:44:02;27.80;;;11.88;;
31676;SDS011;18385;51.572;6.578;2024-03-08T03:46:27;28.58;;;12.80;;
31676;SDS011;18385;51.572;6.578;2024-03-08T03:48:56;23.67;;;12.00;;
31676;SDS011;18385;51.572;6.578;2024-03-08T03:51:21;25.98;;;12.27;;
31676;SDS011;18385;51.572;6.578;2024-03-08T03:53:47;29.92;;;14.52;;
31676;SDS011;18385;51.572;6.578;2024-03-08T03:56:13;27.35;;;12.02;;
31676;SDS011;18385;51.572;6.578;2024-03-08T03:58:39;26.70;;;13.07;;
31676;SDS011;18385;51.572;6.578;2024-03-08T04:01:05;24.75;;;12.40;;
31676;SDS011;18385;51.572;6.578;2024-03-08T04:03:31;27.50;;;12.75;;
31676;SDS011;18385;51.572;6.578;2024-03-08T04:05:56;27.45;;;12.50;;
31676;SDS011;18385;51.572;6.578;2024-03-08T04:08:22;27.58;;;13.20;;
31676;SDS011;18385;51.572;6.578;2024-03-08T04:10:51;28.90;;;12.55;;
31676;SDS011;18385;51.572;6.578;2024-03-08T04:13:17;26.48;;;12.48;;
31676;SDS011;18385;51.572;6.578;2024-03-08T04:15:42;26.73;;;13.40;;
31676;SDS011;18385;51.572;6.578;2024-03-08T04:18:13;27.73;;;13.82;;
31676;SDS011;18385;51.572;6.578;2024-03-08T04:20:39;24.58;;;12.00;;
31676;SDS011;18385;51.572;6.578;2024-03-08T04:23:05;27.55;;;12.35;;
31676;SDS011;18385;51.572;6.578;2024-03-08T04:25:31;26.48;;;11.40;;
31676;SDS011;18385;51.572;6.578;2024-03-08T04:27:57;25.92;;;12.00;;
31676;SDS011;18385;51.572;6.578;2024-03-08T04:30:23;28.17;;;12.30;;
31676;SDS011;18385;51.572;6.578;2024-03-08T04:32:49;28.45;;;12.50;;
31676;SDS011;18385;51.572;6.578;2024-03-08T04:35:15;26.08;;;12.27;;
31676;SDS011;18385;51.572;6.578;2024-03-08T04:37:41;28.15;;;12.88;;
31676;SDS011;18385;51.572;6.578;2024-03-08T04:40:06;27.02;;;12.48;;
31676;SDS011;18385;51.572;6.578;2024-03-08T04:42:32;31.83;;;13.88;;
31676;SDS011;18385;51.572;6.578;2024-03-08T04:44:59;31.10;;;13.35;;
31676;SDS011;18385;51.572;6.578;2024-03-08T04:47:25;27.98;;;13.95;;
31676;SDS011;18385;51.572;6.578;2024-03-08T04:49:51;27.75;;;13.18;;
31676;SDS011;18385;51.572;6.578;2024-03-08T04:52:16;27.00;;;12.70;;
31676;SDS011;18385;51.572;6.578;2024-03-08T04:54:43;31.88;;;13.45;;
31676;SDS011;18385;51.572;6.578;2024-03-08T04:57:09;35.65;;;14.50;;
31676;SDS011;18385;51.572;6.578;2024-03-08T04:59:36;26.33;;;13.43;;
31676;SDS011;18385;51.572;6.578;2024-03-08T05:02:02;29.30;;;13.48;;
31676;SDS011;18385;51.572;6.578;2024-03-08T05:04:27;27.60;;;12.57;;
31676;SDS011;18385;51.572;6.578;2024-03-08T05:06:54;29.67;;;14.15;;
31676;SDS011;18385;51.572;6.578;2024-03-08T05:09:20;26.83;;;13.10;;
31676;SDS011;18385;51.572;6.578;2024-03-08T05:11:46;26.63;;;13.65;;
31676;SDS011;18385;51.572;6.578;2024-03-08T05:14:13;32.75;;;14.27;;
31676;SDS011;18385;51.572;6.578;2024-03-08T05:16:43;28.48;;;12.23;;
31676;SDS011;18385;51.572;6.578;2024-03-08T05:19:10;29.67;;;13.65;;
31676;SDS011;18385;51.572;6.578;2024-03-08T05:21:36;27.52;;;13.75;;
31676;SDS011;18385;51.572;6.578;2024-03-08T05:24:02;30.33;;;14.35;;
31676;SDS011;18385;51.572;6.578;2024-03-08T05:26:29;31.63;;;14.88;;
31676;SDS011;18385;51.572;6.578;2024-03-08T05:28:55;26.33;;;13.50;;
31676;SDS011;18385;51.572;6.578;2024-03-08T05:31:21;28.38;;;13.27;;
31676;SDS011;18385;51.572;6.578;2024-03-08T05:33:48;29.60;;;13.55;;
31676;SDS011;18385;51.572;6.578;2024-03-08T05:36:14;29.52;;;14.15;;
31676;SDS011;18385;51.572;6.578;2024-03-08T05:38:42;25.48;;;12.63;;
31676;SDS011;18385;51.572;6.578;2024-03-08T05:41:09;27.48;;;13.15;;
31676;SDS011;18385;51.572;6.578;2024-03-08T05:43:35;31.55;;;13.82;;
31676;SDS011;18385;51.572;6.578;2024-03-08T05:46:00;32.97;;;13.50;;
31676;SDS011;18385;51.572;6.578;2024-03-08T05:48:26;29.70;;;12.60;;
31676;SDS011;18385;51.572;6.578;2024-03-08T05:50:53;26.27;;;13.20;;
31676;SDS011;18385;51.572;6.578;2024-03-08T05:53:18;30.23;;;12.88;;
31676;SDS011;18385;51.572;6.578;2024-03-08T05:55:44;33.33;;;14.23;;
31676;SDS011;18385;51.572;6.578;2024-03-08T05:58:10;29.55;;;13.77;;
31676;SDS011;18385;51.572;6.578;2024-03-08T06:00:36;31.13;;;14.13;;
31676;SDS011;18385;51.572;6.578;2024-03-08T06:03:02;27.70;;;13.27;;
31676;SDS011;18385;51.572;6.578;2024-03-08T06:05:28;29.10;;;13.43;;
31676;SDS011;18385;51.572;6.578;2024-03-08T06:07:54;30.40;;;13.65;;
31676;SDS011;18385;51.572;6.578;2024-03-08T06:10:19;30.42;;;12.85;;
31676;SDS011;18385;51.572;6.578;2024-03-08T06:12:45;31.00;;;13.38;;
31676;SDS011;18385;51.572;6.578;2024-03-08T06:15:11;31.60;;;14.10;;
31676;SDS011;18385;51.572;6.578;2024-03-08T06:17:40;29.05;;;13.25;;
31676;SDS011;18385;51.572;6.578;2024-03-08T06:20:06;31.08;;;13.52;;
31676;SDS011;18385;51.572;6.578;2024-03-08T06:22:39;30.08;;;13.77;;
31676;SDS011;18385;51.572;6.578;2024-03-08T06:25:10;27.08;;;13.52;;
31676;SDS011;18385;51.572;6.578;2024-03-08T06:27:41;31.90;;;13.27;;
31676;SDS011;18385;51.572;6.578;2024-03-08T06:30:07;31.75;;;13.25;;
31676;SDS011;18385;51.572;6.578;2024-03-08T06:32:37;30.45;;;13.82;;
31676;SDS011;18385;51.572;6.578;2024-03-08T06:35:03;31.42;;;14.18;;
31676;SDS011;18385;51.572;6.578;2024-03-08T06:37:33;25.73;;;13.60;;
31676;SDS011;18385;51.572;6.578;2024-03-08T06:39:59;32.10;;;13.75;;
31676;SDS011;18385;51.572;6.578;2024-03-08T06:42:29;32.47;;;14.02;;
31676;SDS011;18385;51.572;6.578;2024-03-08T06:44:59;32.28;;;14.20;;
31676;SDS011;18385;51.572;6.578;2024-03-08T06:47:31;29.50;;;13.93;;
31676;SDS011;18385;51.572;6.578;2024-03-08T06:49:59;30.70;;;13.85;;
31676;SDS011;18385;51.572;6.578;2024-03-08T06:52:25;29.17;;;14.85;;
31676;SDS011;18385;51.572;6.578;2024-03-08T06:54:51;28.02;;;13.18;;
31676;SDS011;18385;51.572;6.578;2024-03-08T06:57:17;31.05;;;13.50;;
31676;SDS011;18385;51.572;6.578;2024-03-08T06:59:45;33.03;;;14.35;;
31676;SDS011;18385;51.572;6.578;2024-03-08T07:02:11;28.85;;;14.07;;
31676;SDS011;18385;51.572;6.578;2024-03-08T07:04:36;29.67;;;13.50;;
31676;SDS011;18385;51.572;6.578;2024-03-08T07:07:05;26.95;;;13.10;;
31676;SDS011;18385;51.572;6.578;2024-03-08T07:09:35;27.10;;;13.55;;
31676;SDS011;18385;51.572;6.578;2024-03-08T07:12:01;30.25;;;14.18;;
31676;SDS011;18385;51.572;6.578;2024-03-08T07:14:27;33.47;;;13.40;;
31676;SDS011;18385;51.572;6.578;2024-03-08T07:16:52;29.75;;;12.95;;
31676;SDS011;18385;51.572;6.578;2024-03-08T07:19:18;27.10;;;13.13;;
31676;SDS011;18385;51.572;6.578;2024-03-08T07:21:44;30.13;;;14.43;;
31676;SDS011;18385;51.572;6.578;2024-03-08T07:24:10;30.60;;;14.25;;
31676;SDS011;18385;51.572;6.578;2024-03-08T07:26:42;27.98;;;13.02;;
31676;SDS011;18385;51.572;6.578;2024-03-08T07:29:09;29.90;;;13.52;;
31676;SDS011;18385;51.572;6.578;2024-03-08T07:31:34;31.33;;;14.30;;
31676;SDS011;18385;51.572;6.578;2024-03-08T07:34:20;27.08;;;13.30;;
31676;SDS011;18385;51.572;6.578;2024-03-08T07:36:46;30.70;;;13.93;;
31676;SDS011;18385;51.572;6.578;2024-03-08T07:39:12;29.40;;;13.50;;
31676;SDS011;18385;51.572;6.578;2024-03-08T07:41:38;25.90;;;12.65;;
31676;SDS011;18385;51.572;6.578;2024-03-08T07:44:07;30.08;;;13.57;;
31676;SDS011;18385;51.572;6.578;2024-03-08T07:46:33;27.75;;;13.32;;
31676;SDS011;18385;51.572;6.578;2024-03-08T07:48:59;29.95;;;14.90;;
31676;SDS011;18385;51.572;6.578;2024-03-08T07:51:25;29.98;;;13.13;;
31676;SDS011;18385;51.572;6.578;2024-03-08T07:53:51;30.48;;;14.73;;
31676;SDS011;18385;51.572;6.578;2024-03-08T07:56:17;25.85;;;13.23;;
31676;SDS011;18385;51.572;6.578;2024-03-08T07:58:43;25.42;;;12.27;;
31676;SDS011;18385;51.572;6.578;2024-03-08T08:01:18;32.55;;;13.27;;
31676;SDS011;18385;51.572;6.578;2024-03-08T08:03:47;27.35;;;13.65;;
31676;SDS011;18385;51.572;6.578;2024-03-08T08:06:14;27.38;;;13.35;;
31676;SDS011;18385;51.572;6.578;2024-03-08T08:08:44;28.85;;;13.73;;
31676;SDS011;18385;51.572;6.578;2024-03-08T08:11:10;29.80;;;14.45;;
31676;SDS011;18385;51.572;6.578;2024-03-08T08:13:40;29.67;;;14.35;;
31676;SDS011;18385;51.572;6.578;2024-03-08T08:16:08;25.58;;;12.90;;
31676;SDS011;18385;51.572;6.578;2024-03-08T08:18:34;30.42;;;13.07;;
31676;SDS011;18385;51.572;6.578;2024-03-08T08:21:01;26.35;;;13.77;;
31676;SDS011;18385;51.572;6.578;2024-03-08T08:23:27;31.58;;;13.32;;
31676;SDS011;18385;51.572;6.578;2024-03-08T08:25:54;28.50;;;13.25;;
31676;SDS011;18385;51.572;6.578;2024-03-08T08:28:20;30.85;;;13.48;;
31676;SDS011;18385;51.572;6.578;2024-03-08T08:30:46;28.50;;;13.07;;
31676;SDS011;18385;51.572;6.578;2024-03-08T08:33:12;30.23;;;14.05;;
31676;SDS011;18385;51.572;6.578;2024-03-08T08:35:38;28.63;;;13.40;;
31676;SDS011;18385;51.572;6.578;2024-03-08T08:38:07;25.40;;;13.52;;
31676;SDS011;18385;51.572;6.578;2024-03-08T08:40:35;29.50;;;12.70;;
31676;SDS011;18385;51.572;6.578;2024-03-08T08:43:02;26.00;;;12.48;;
31676;SDS011;18385;51.572;6.578;2024-03-08T08:45:30;27.88;;;13.88;;
31676;SDS011;18385;51.572;6.578;2024-03-08T08:47:56;27.63;;;12.43;;
31676;SDS011;18385;51.572;6.578;2024-03-08T08:50:25;26.95;;;12.88;;
31676;SDS011;18385;51.572;6.578;2024-03-08T08:52:51;27.15;;;12.35;;
31676;SDS011;18385;51.572;6.578;2024-03-08T08:55:18;28.42;;;12.55;;
31676;SDS011;18385;51.572;6.578;2024-03-08T08:57:49;26.30;;;12.20;;
31676;SDS011;18385;51.572;6.578;2024-03-08T09:00:17;26.80;;;12.38;;
31676;SDS011;18385;51.572;6.578;2024-03-08T09:02:45;27.38;;;11.57;;
31676;SDS011;18385;51.572;6.578;2024-03-08T09:05:10;27.30;;;11.90;;
31676;SDS011;18385;51.572;6.578;2024-03-08T09:07:36;23.83;;;11.40;;
31676;SDS011;18385;51.572;6.578;2024-03-08T09:10:03;23.15;;;11.52;;
31676;SDS011;18385;51.572;6.578;2024-03-08T09:12:29;27.02;;;13.00;;
31676;SDS011;18385;51.572;6.578;2024-03-08T09:14:54;23.42;;;11.05;;
31676;SDS011;18385;51.572;6.578;2024-03-08T09:17:20;24.20;;;12.25;;
31676;SDS011;18385;51.572;6.578;2024-03-08T09:19:46;24.77;;;12.15;;
31676;SDS011;18385;51.572;6.578;2024-03-08T09:22:12;23.88;;;11.50;;
31676;SDS011;18385;51.572;6.578;2024-03-08T09:24:38;25.25;;;12.93;;
31676;SDS011;18385;51.572;6.578;2024-03-08T09:27:04;24.85;;;12.52;;
31676;SDS011;18385;51.572;6.578;2024-03-08T09:29:30;27.10;;;11.73;;
31676;SDS011;18385;51.572;6.578;2024-03-08T09:31:56;28.40;;;12.63;;
31676;SDS011;18385;51.572;6.578;2024-03-08T09:34:22;24.10;;;11.90;;
31676;SDS011;18385;51.572;6.578;2024-03-08T09:36:48;23.48;;;11.70;;
31676;SDS011;18385;51.572;6.578;2024-03-08T09:39:15;23.20;;;11.55;;
31676;SDS011;18385;51.572;6.578;2024-03-08T09:41:45;24.30;;;11.75;;
31676;SDS011;18385;51.572;6.578;2024-03-08T09:44:17;21.70;;;10.90;;
31676;SDS011;18385;51.572;6.578;2024-03-08T09:46:45;24.00;;;10.93;;
31676;SDS011;18385;51.572;6.578;2024-03-08T09:49:12;20.95;;;10.68;;
31676;SDS011;18385;51.572;6.578;2024-03-08T09:51:38;24.27;;;10.65;;
31676;SDS011;18385;51.572;6.578;2024-03-08T09:54:06;19.63;;;9.95;;
31676;SDS011;18385;51.572;6.578;2024-03-08T09:56:33;21.35;;;10.65;;
31676;SDS011;18385;51.572;6.578;2024-03-08T09:59:01;20.02;;;10.50;;
31676;SDS011;18385;51.572;6.578;2024-03-08T10:01:45;24.65;;;10.60;;
31676;SDS011;18385;51.572;6.578;2024-03-08T10:04:11;23.70;;;11.40;;
31676;SDS011;18385;51.572;6.578;2024-03-08T10:06:39;20.92;;;10.27;;
31676;SDS011;18385;51.572;6.578;2024-03-08T10:09:05;22.38;;;10.98;;
31676;SDS011;18385;51.572;6.578;2024-03-08T10:11:33;21.48;;;10.35;;
31676;SDS011;18385;51.572;6.578;2024-03-08T10:14:00;19.88;;;10.48;;
31676;SDS011;18385;51.572;6.578;2024-03-08T10:16:29;24.23;;;10.23;;
31676;SDS011;18385;51.572;6.578;2024-03-08T10:18:58;22.80;;;10.33;;
31676;SDS011;18385;51.572;6.578;2024-03-08T10:21:25;20.42;;;10.40;;
31676;SDS011;18385;51.572;6.578;2024-03-08T10:23:51;20.98;;;10.15;;
31676;SDS011;18385;51.572;6.578;2024-03-08T10:26:17;22.67;;;10.40;;
31676;SDS011;18385;51.572;6.578;2024-03-08T10:28:45;20.70;;;10.40;;
31676;SDS011;18385;51.572;6.578;2024-03-08T10:31:13;21.05;;;10.90;;
31676;SDS011;18385;51.572;6.578;2024-03-08T10:33:40;17.83;;;9.75;;
31676;SDS011;18385;51.572;6.578;2024-03-08T10:36:10;24.38;;;11.38;;
31676;SDS011;18385;51.572;6.578;2024-03-08T10:38:37;26.80;;;11.05;;
31676;SDS011;18385;51.572;6.578;2024-03-08T10:41:05;19.20;;;10.07;;
31676;SDS011;18385;51.572;6.578;2024-03-08T10:43:40;21.70;;;10.32;;
31676;SDS011;18385;51.572;6.578;2024-03-08T10:46:29;21.10;;;10.35;;
31676;SDS011;18385;51.572;6.578;2024-03-08T10:49:06;22.98;;;10.68;;
31676;SDS011;18385;51.572;6.578;2024-03-08T10:51:37;20.13;;;10.52;;
31676;SDS011;18385;51.572;6.578;2024-03-08T10:54:06;21.73;;;11.38;;
31676;SDS011;18385;51.572;6.578;2024-03-08T10:56:35;20.70;;;11.00;;
31676;SDS011;18385;51.572;6.578;2024-03-08T10:59:01;21.75;;;9.77;;
31676;SDS011;18385;51.572;6.578;2024-03-08T11:01:29;21.65;;;10.20;;
31676;SDS011;18385;51.572;6.578;2024-03-08T11:03:55;20.90;;;10.90;;
31676;SDS011;18385;51.572;6.578;2024-03-08T11:06:42;22.33;;;9.32;;
31676;SDS011;18385;51.572;6.578;2024-03-08T11:14:59;18.25;;;9.63;;
31676;SDS011;18385;51.572;6.578;2024-03-08T11:19:58;22.70;;;11.10;;
31676;SDS011;18385;51.572;6.578;2024-03-08T11:22:29;23.38;;;11.70;;
31676;SDS011;18385;51.572;6.578;2024-03-08T11:24:58;18.08;;;9.50;;
31676;SDS011;18385;51.572;6.578;2024-03-08T11:27:38;20.23;;;10.30;;
31676;SDS011;18385;51.572;6.578;2024-03-08T11:30:04;20.67;;;10.50;;
31676;SDS011;18385;51.572;6.578;2024-03-08T11:32:37;21.90;;;10.00;;
31676;SDS011;18385;51.572;6.578;2024-03-08T11:35:07;21.65;;;10.35;;
31676;SDS011;18385;51.572;6.578;2024-03-08T11:37:46;18.88;;;10.15;;
31676;SDS011;18385;51.572;6.578;2024-03-08T11:40:13;20.30;;;9.77;;
31676;SDS011;18385;51.572;6.578;2024-03-08T11:42:43;22.20;;;10.43;;
31676;SDS011;18385;51.572;6.578;2024-03-08T11:45:12;19.50;;;9.85;;
31676;SDS011;18385;51.572;6.578;2024-03-08T11:47:39;20.45;;;10.80;;
31676;SDS011;18385;51.572;6.578;2024-03-08T11:50:07;20.47;;;10.80;;
31676;SDS011;18385;51.572;6.578;2024-03-08T11:52:36;19.60;;;10.25;;
31676;SDS011;18385;51.572;6.578;2024-03-08T11:55:02;16.58;;;8.93;;
31676;SDS011;18385;51.572;6.578;2024-03-08T11:57:30;24.90;;;10.32;;
31676;SDS011;18385;51.572;6.578;2024-03-08T11:59:57;21.42;;;9.77;;
31676;SDS011;18385;51.572;6.578;2024-03-08T12:02:33;20.63;;;10.68;;
31676;SDS011;18385;51.572;6.578;2024-03-08T12:05:03;18.70;;;10.30;;
31676;SDS011;18385;51.572;6.578;2024-03-08T12:07:31;20.77;;;9.35;;
31676;SDS011;18385;51.572;6.578;2024-03-08T12:12:47;21.95;;;9.95;;
31676;SDS011;18385;51.572;6.578;2024-03-08T12:15:17;22.77;;;10.85;;
31676;SDS011;18385;51.572;6.578;2024-03-08T12:17:44;20.20;;;9.48;;
31676;SDS011;18385;51.572;6.578;2024-03-08T12:20:19;20.10;;;10.13;;
31676;SDS011;18385;51.572;6.578;2024-03-08T12:22:50;20.70;;;10.88;;
31676;SDS011;18385;51.572;6.578;2024-03-08T12:25:21;20.50;;;11.10;;
31676;SDS011;18385;51.572;6.578;2024-03-08T12:27:48;22.65;;;10.38;;
31676;SDS011;18385;51.572;6.578;2024-03-08T12:32:59;19.35;;;10.02;;
31676;SDS011;18385;51.572;6.578;2024-03-08T12:35:29;20.27;;;10.52;;
31676;SDS011;18385;51.572;6.578;2024-03-08T12:37:57;20.38;;;10.18;;
31676;SDS011;18385;51.572;6.578;2024-03-08T12:40:31;19.63;;;10.43;;
31676;SDS011;18385;51.572;6.578;2024-03-08T12:42:59;19.75;;;10.77;;
31676;SDS011;18385;51.572;6.578;2024-03-08T12:45:26;21.08;;;10.27;;
31676;SDS011;18385;51.572;6.578;2024-03-08T12:47:52;17.13;;;9.60;;
31676;SDS011;18385;51.572;6.578;2024-03-08T12:50:19;17.75;;;9.18;;
31676;SDS011;18385;51.572;6.578;2024-03-08T12:52:50;19.45;;;9.65;;
31676;SDS011;18385;51.572;6.578;2024-03-08T12:55:17;22.65;;;9.57;;
31676;SDS011;18385;51.572;6.578;2024-03-08T12:57:43;18.33;;;9.65;;
31676;SDS011;18385;51.572;6.578;2024-03-08T13:00:10;20.83;;;10.00;;
31676;SDS011;18385;51.572;6.578;2024-03-08T13:02:44;16.83;;;9.23;;
31676;SDS011;18385;51.572;6.578;2024-03-08T13:05:11;21.92;;;10.23;;
31676;SDS011;18385;51.572;6.578;2024-03-08T13:07:39;18.83;;;10.48;;
31676;SDS011;18385;51.572;6.578;2024-03-08T13:10:06;19.13;;;10.02;;
31676;SDS011;18385;51.572;6.578;2024-03-08T13:12:32;18.20;;;9.18;;
31676;SDS011;18385;51.572;6.578;2024-03-08T13:15:01;19.95;;;9.05;;
31676;SDS011;18385;51.572;6.578;2024-03-08T13:17:26;18.33;;;10.00;;
31676;SDS011;18385;51.572;6.578;2024-03-08T13:19:53;16.48;;;8.80;;
31676;SDS011;18385;51.572;6.578;2024-03-08T13:22:22;18.77;;;9.13;;
31676;SDS011;18385;51.572;6.578;2024-03-08T13:24:49;16.60;;;9.93;;
31676;SDS011;18385;51.572;6.578;2024-03-08T13:27:17;16.80;;;8.70;;
31676;SDS011;18385;51.572;6.578;2024-03-08T13:29:50;17.48;;;9.30;;
31676;SDS011;18385;51.572;6.578;2024-03-08T13:32:16;17.83;;;9.13;;
31676;SDS011;18385;51.572;6.578;2024-03-08T13:34:45;17.23;;;8.52;;
31676;SDS011;18385;51.572;6.578;2024-03-08T13:37:12;14.07;;;8.32;;
31676;SDS011;18385;51.572;6.578;2024-03-08T13:39:41;15.00;;;7.97;;
31676;SDS011;18385;51.572;6.578;2024-03-08T13:42:12;17.77;;;7.93;;
31676;SDS011;18385;51.572;6.578;2024-03-08T13:44:47;16.80;;;8.60;;
31676;SDS011;18385;51.572;6.578;2024-03-08T13:47:14;14.88;;;7.82;;
31676;SDS011;18385;51.572;6.578;2024-03-08T13:49:42;14.68;;;8.18;;
31676;SDS011;18385;51.572;6.578;2024-03-08T13:52:08;14.48;;;7.85;;
31676;SDS011;18385;51.572;6.578;2024-03-08T13:54:35;17.20;;;7.38;;
31676;SDS011;18385;51.572;6.578;2024-03-08T13:57:01;12.13;;;7.53;;
31676;SDS011;18385;51.572;6.578;2024-03-08T13:59:32;14.55;;;7.95;;
31676;SDS011;18385;51.572;6.578;2024-03-08T14:02:00;15.57;;;8.02;;
31676;SDS011;18385;51.572;6.578;2024-03-08T14:04:27;13.38;;;7.72;;
31676;SDS011;18385;51.572;6.578;2024-03-08T14:06:53;15.40;;;7.40;;
31676;SDS011;18385;51.572;6.578;2024-03-08T14:09:26;12.82;;;7.65;;
31676;SDS011;18385;51.572;6.578;2024-03-08T14:11:54;13.85;;;8.23;;
31676;SDS011;18385;51.572;6.578;2024-03-08T14:14:20;13.38;;;8.13;;
31676;SDS011;18385;51.572;6.578;2024-03-08T14:16:48;14.35;;;7.82;;
31676;SDS011;18385;51.572;6.578;2024-03-08T14:19:17;13.60;;;7.75;;
31676;SDS011;18385;51.572;6.578;2024-03-08T14:21:44;15.45;;;8.35;;
31676;SDS011;18385;51.572;6.578;2024-03-08T14:24:10;14.93;;;8.13;;
31676;SDS011;18385;51.572;6.578;2024-03-08T14:26:35;13.13;;;7.68;;
31676;SDS011;18385;51.572;6.578;2024-03-08T14:29:04;15.35;;;7.80;;
31676;SDS011;18385;51.572;6.578;2024-03-08T14:31:30;11.20;;;6.07;;
31676;SDS011;18385;51.572;6.578;2024-03-08T14:33:56;14.32;;;7.18;;
31676;SDS011;18385;51.572;6.578;2024-03-08T14:36:24;13.38;;;6.95;;
31676;SDS011;18385;51.572;6.578;2024-03-08T14:38:51;12.75;;;6.80;;
31676;SDS011;18385;51.572;6.578;2024-03-08T14:41:17;12.50;;;6.25;;